logo
Rechercher aéroport 
image banner adimage banner adimage banner ad
image banner ad

TFH2 - Pointe A Pitre Abymes Centre Hospitalier

Situé à , Guadeloupe

ICAO - , IATA -

Données fournies par Airmate  

Information générale

Coordonnées: N16°14'10" W61°31'26"
Élévation : 58 feet MSL.
Variation magnétique : -14.92° East
Voir autres Aéroports à (unassigned)

Données opérationnelles

Special qualification required
Heure actuelle UTC:
Heure actuelle locale:
Météo à : TFFR - Pointe A Pitre Le Raizet ( 3 km )
METAR: TFFR 060230Z AUTO 08009KT 9999 FEW029 SCT048 OVC078 25/20 Q1019 NOSIG
TAF: TAF TFFR 060400Z 0606/0706 09008KT 9999 SCT028 BKN040 PROB30 TEMPO 0618/0624 09015G25KT 4000 SHRA SCT018TCU BKN020
Voir NOTAMs / SUP AIP / TFR affectant cet aéroport [VIEW]
Fréquences de communication: [VIEW]

Pistes:

Coordonnées de l'aéroport

Adresse: Guadeloupe

Vue satellite de TFH2